Terminal Aerodrome Forecast
Issued by NWS

Home | Current Version | Previous Version | Text Only | Print | Product List | Glossary Off
Versions: 1 2 3 4 5 6 7 8 9 10 11 12 13 14 15 16 17 18 19 20 21 22

009
FTUS43 KBIS 191127
TAFDIK
TAF
KDIK 191127Z 1912/2012 09007KT 1/2SM FZFG VV002
      TEMPO 1913/1916 12006KT 3SM BR SCT002 SCT250
     FM191600 14004KT P6SM FEW005 SCT250
     FM191800 16007KT P6SM SCT250
     FM200300 VRB03KT P6SM SCT110 BKN150
     FM200500 28007KT P6SM -RA BKN070 OVC090=

USA.gov is the U.S. government's official web portal to all federal, state and local government web resources and services.